Aeroporto :
LOGIN :

Iscrizione | Disclaimer

   EN    FR    IT 

 










Sommario :    VFR   VFR Marginale   IFR   IFR Intensivo   IFR Molto Intensivo
Visibilità : 
Base nubi : 
>= 8 km
>= 3000ft
5 / 8 km
1000 / 3000 ft
1500m / 5 km
500 / 1000 ft
800 / 1500m
200 / 500 ft
< 800m
< 200 ft
Simboli :   Temporali  Nebbia  Neve Forte  Precipitazioni Forti  Vento > 20 kt
SIGMETs :   Varie  Temporali  Ghiacco  Turbolenza  Onda orograficha  Ceneri Vulcaniche







- Altitudine del aeroporto : 55 ft
- Carte del aeroporto


EGNO - Warton Preston

ULTIMO METAR :
  • 181620Z 28004KT 200V340 9999 SCT033 18/11 Q1011

METARs OBSOLETI :
  • 181550Z 33006KT 300V360 9999 FEW032 18/11 Q1012
  • 181520Z 28006KT 230V320 9999 SCT038 18/11 Q1012
  • 181450Z 29006KT 250V340 9999 SCT040 18/11 Q1012
  • 181420Z 29006KT 270V330 9999 SCT045 17/09 Q1012
  • 181350Z 30008KT 250V330 9999 FEW042 17/09 Q1013

TAF TAF EGNO
Valido dal 18 a 15 ore il 18 a 18 ore UTC


181402Z 1815/1818 30006KT 9999 SCT025
ATIS : +44 1772 856 060
Nessun NOTAM noto per questo aeroporto.



MetMap, La meteo Aeronautica in un colpo d'occhio ! - Copyright ORBIFLY Dicembre 2007 - Disclaimer

ORBIFLY MET'MAP TEAM :

Programmazione e sviluppo : Alexandra Zaïnal
Concezione e sviluppo : Baudouin d'Aumeries
Co-Programmazione e sviluppo : Marc-Olivier Méhu
Supporto tecnico e logistico : Manuel Goepfert
Aiuto per la traduzione : Arnaldo La Scala

Contatto : metmap@orbifly.com




FONTI E CREDITI :

   NOAA